createdAt,value
2022-11-20T00:00:56.032Z,60.42
2022-11-20T00:01:56.133Z,61.55
2022-11-20T00:02:55.878Z,58.33
2022-11-20T00:03:56.079Z,57.36
2022-11-20T00:04:55.962Z,60.42
2022-11-20T00:05:56.050Z,59.30
2022-11-20T00:06:55.918Z,60.75
2022-11-20T00:07:55.908Z,61.39
2022-11-20T00:08:56.041Z,59.46
2022-11-20T00:09:55.877Z,63.97
2022-11-20T00:10:55.909Z,61.23
2022-11-20T00:11:55.870Z,59.62
2022-11-20T00:12:55.872Z,60.75
2022-11-20T00:13:55.850Z,59.78
2022-11-20T00:14:55.923Z,59.62
2022-11-20T00:15:55.937Z,61.55
2022-11-20T00:16:55.915Z,57.04
2022-11-20T00:17:55.944Z,60.75
2022-11-20T00:18:55.935Z,62.52
2022-11-20T00:19:55.964Z,60.91
2022-11-20T00:20:55.921Z,61.55
2022-11-20T00:21:55.892Z,61.87
2022-11-20T00:22:55.882Z,60.42
2022-11-20T00:23:55.911Z,58.81
2022-11-20T00:24:56.480Z,59.46
2022-11-20T00:25:55.805Z,59.94
2022-11-20T00:26:55.774Z,57.36
2022-11-20T00:27:55.920Z,59.46
2022-11-20T00:28:55.861Z,57.36
2022-11-20T00:29:55.907Z,59.62
2022-11-20T00:30:55.869Z,63.16
2022-11-20T00:31:55.989Z,62.36
2022-11-20T00:32:55.797Z,60.59
2022-11-20T00:33:55.818Z,61.23
2022-11-20T00:34:55.806Z,59.62
2022-11-20T00:35:55.867Z,59.62
2022-11-20T00:36:55.854Z,60.26
2022-11-20T00:37:55.860Z,61.55
2022-11-20T00:38:55.848Z,60.91
2022-11-20T00:39:55.891Z,60.26
2022-11-20T00:40:55.703Z,57.69
2022-11-20T00:41:55.689Z,59.46
2022-11-20T00:42:55.749Z,59.14
2022-11-20T00:43:55.680Z,60.75
2022-11-20T00:44:55.719Z,58.01
2022-11-20T00:45:55.813Z,56.56
2022-11-20T00:46:55.739Z,61.07
2022-11-20T00:47:55.704Z,60.42
2022-11-20T00:48:55.795Z,58.49
2022-11-20T00:49:55.807Z,57.52
2022-11-20T00:50:55.792Z,59.14
2022-11-20T00:51:55.682Z,58.65
2022-11-20T00:52:55.679Z,59.78
2022-11-20T00:53:55.753Z,60.42
2022-11-20T00:54:55.693Z,57.20
2022-11-20T00:55:55.707Z,57.85
2022-11-20T00:56:55.600Z,58.65
2022-11-20T00:57:55.559Z,62.04
2022-11-20T00:58:55.686Z,58.33
2022-11-20T00:59:55.609Z,57.04
2022-11-20T01:00:55.669Z,59.30
2022-11-20T01:01:55.523Z,58.97
2022-11-20T01:02:55.535Z,57.85
2022-11-20T01:03:55.639Z,57.04
2022-11-20T01:04:55.697Z,58.01
2022-11-20T01:05:55.586Z,57.52
2022-11-20T01:06:55.679Z,57.36
2022-11-20T01:07:55.690Z,57.36
2022-11-20T01:08:55.579Z,58.65
2022-11-20T01:09:55.594Z,57.52
2022-11-20T01:10:55.595Z,59.14
2022-11-20T01:11:55.547Z,56.40
2022-11-20T01:12:55.547Z,58.17
2022-11-20T01:13:55.561Z,57.04
2022-11-20T01:14:55.556Z,56.72
2022-11-20T01:15:55.564Z,55.91
2022-11-20T01:16:55.444Z,57.52
2022-11-20T01:17:55.512Z,56.56
2022-11-20T01:18:55.580Z,57.69
2022-11-20T01:19:55.511Z,57.52
2022-11-20T01:20:55.468Z,57.04
2022-11-20T01:21:55.599Z,59.14
2022-11-20T01:22:55.475Z,59.14
2022-11-20T01:23:55.573Z,57.69
2022-11-20T01:24:55.575Z,56.24
2022-11-20T01:25:55.469Z,59.94
2022-11-20T01:26:55.567Z,56.24
2022-11-20T01:27:55.482Z,60.10
2022-11-20T01:28:55.497Z,57.04
2022-11-20T01:30:00.836Z,58.81
2022-11-20T01:30:57.424Z,58.01
2022-11-20T01:31:55.359Z,56.72
2022-11-20T01:32:55.547Z,59.62
2022-11-20T01:33:55.339Z,59.30
2022-11-20T01:34:55.427Z,58.49
2022-11-20T01:35:55.403Z,55.91
2022-11-20T01:36:55.390Z,56.40
2022-11-20T01:37:55.445Z,56.56
2022-11-20T01:38:55.393Z,58.17
2022-11-20T01:39:55.391Z,58.49
2022-11-20T01:40:55.363Z,60.10
2022-11-20T01:41:55.342Z,57.69
2022-11-20T01:42:55.421Z,57.36
2022-11-20T01:43:55.404Z,59.62
2022-11-20T01:44:55.372Z,58.17
2022-11-20T01:45:55.330Z,58.17
2022-11-20T01:46:55.351Z,56.40
2022-11-20T01:47:55.448Z,56.40
2022-11-20T01:48:55.426Z,56.56
2022-11-20T01:49:55.351Z,57.20
2022-11-20T01:51:14.460Z,57.36
2022-11-20T01:51:56.276Z,60.75
2022-11-20T01:52:55.243Z,60.10
2022-11-20T01:53:55.210Z,60.42
2022-11-20T01:54:55.247Z,59.78
2022-11-20T01:55:55.208Z,57.36
2022-11-20T01:56:55.225Z,57.04
2022-11-20T01:57:55.170Z,58.49
2022-11-20T01:58:55.188Z,57.20
2022-11-20T01:59:55.212Z,58.17
2022-11-20T02:00:55.287Z,60.10
2022-11-20T02:01:55.267Z,58.17
2022-11-20T02:02:55.138Z,58.49
2022-11-20T02:03:55.264Z,57.85
2022-11-20T02:04:55.225Z,58.33
2022-11-20T02:05:55.273Z,57.36
2022-11-20T02:06:55.209Z,58.01
2022-11-20T02:07:55.253Z,57.36
2022-11-20T02:08:55.275Z,59.78
2022-11-20T02:09:58.742Z,58.97
2022-11-20T02:10:56.211Z,59.14
2022-11-20T02:11:55.120Z,57.85
2022-11-20T02:12:55.124Z,57.85
2022-11-20T02:13:55.128Z,58.17
2022-11-20T02:14:55.088Z,58.01
2022-11-20T02:15:55.091Z,57.20
2022-11-20T02:16:55.130Z,57.36
2022-11-20T02:17:55.124Z,57.36
2022-11-20T02:18:55.067Z,58.81
2022-11-20T02:19:55.060Z,57.85
2022-11-20T02:20:55.136Z,57.04
2022-11-20T02:21:55.184Z,57.52
2022-11-20T02:22:55.206Z,58.17
2022-11-20T02:23:55.221Z,57.52
2022-11-20T02:24:55.119Z,56.88
2022-11-20T02:25:55.175Z,57.04
2022-11-20T02:26:55.099Z,57.52
2022-11-20T02:27:55.244Z,57.69
2022-11-20T02:28:55.157Z,58.65
2022-11-20T02:29:55.077Z,56.56
2022-11-20T02:30:56.064Z,56.40
2022-11-20T02:31:54.990Z,64.29
2022-11-20T02:32:55.074Z,56.07
2022-11-20T02:33:55.054Z,55.91
2022-11-20T02:34:54.959Z,55.75
2022-11-20T02:35:54.980Z,55.91
2022-11-20T02:36:54.955Z,56.56
2022-11-20T02:37:54.958Z,56.56
2022-11-20T02:38:55.037Z,56.56
2022-11-20T02:39:54.957Z,55.59
2022-11-20T02:40:55.804Z,56.72
2022-11-20T02:41:55.999Z,55.27
2022-11-20T02:42:54.985Z,55.11
2022-11-20T02:43:55.012Z,56.56
2022-11-20T02:44:54.990Z,55.27
2022-11-20T02:45:54.986Z,55.27
2022-11-20T02:46:55.038Z,57.04
2022-11-20T02:47:54.972Z,56.56
2022-11-20T02:48:55.057Z,60.59
2022-11-20T02:49:55.013Z,59.62
2022-11-20T02:50:55.014Z,58.17
2022-11-20T02:51:55.037Z,57.85
2022-11-20T02:52:54.906Z,55.91
2022-11-20T02:53:54.836Z,56.56
2022-11-20T02:54:54.965Z,55.91
2022-11-20T02:55:54.871Z,57.52
2022-11-20T02:56:54.961Z,56.56
2022-11-20T02:57:54.995Z,56.07
2022-11-20T02:58:54.968Z,56.40
2022-11-20T02:59:54.992Z,56.24
2022-11-20T03:00:54.954Z,56.07
2022-11-20T03:01:54.998Z,56.07
2022-11-20T03:02:54.787Z,56.88
2022-11-20T03:03:55.916Z,57.52
2022-11-20T03:04:54.886Z,57.20
2022-11-20T03:05:54.905Z,56.40
2022-11-20T03:06:54.884Z,56.40
2022-11-20T03:07:54.802Z,58.17
2022-11-20T03:08:54.751Z,56.40
2022-11-20T03:09:54.859Z,57.20
2022-11-20T03:10:54.820Z,56.56
2022-11-20T03:11:54.736Z,56.72
2022-11-20T03:12:54.761Z,57.85
2022-11-20T03:13:54.736Z,56.88
2022-11-20T03:14:54.756Z,56.56
2022-11-20T03:15:54.943Z,57.85
2022-11-20T03:16:54.796Z,56.56
2022-11-20T03:17:54.909Z,56.40
2022-11-20T03:18:54.812Z,56.24
2022-11-20T03:19:54.802Z,58.17
2022-11-20T03:20:54.794Z,56.56
2022-11-20T03:21:54.969Z,56.56
2022-11-20T03:22:54.780Z,56.24
2022-11-20T03:23:54.774Z,57.69
2022-11-20T03:24:54.768Z,57.69
2022-11-20T03:25:54.777Z,56.56
2022-11-20T03:26:54.770Z,56.40
2022-11-20T03:27:54.675Z,57.20
2022-11-20T03:28:54.668Z,56.56
2022-11-20T03:29:54.719Z,57.04
2022-11-20T03:30:54.623Z,56.56
2022-11-20T03:31:54.650Z,57.20
2022-11-20T03:32:54.645Z,57.36
2022-11-20T03:33:54.657Z,56.72
2022-11-20T03:34:54.611Z,56.56
2022-11-20T03:35:54.693Z,56.72
2022-11-20T03:36:54.686Z,57.04
2022-11-20T03:37:54.777Z,58.17
2022-11-20T03:38:54.709Z,57.69
2022-11-20T03:39:54.659Z,56.72
2022-11-20T03:40:54.676Z,56.56
2022-11-20T03:41:54.633Z,57.52
2022-11-20T03:42:54.733Z,56.56
2022-11-20T03:43:54.684Z,56.40
2022-11-20T03:44:54.688Z,58.17
2022-11-20T03:45:54.557Z,57.36
2022-11-20T03:46:54.512Z,57.85
2022-11-20T03:47:54.699Z,56.56
2022-11-20T03:48:54.647Z,58.49
2022-11-20T03:49:54.696Z,57.52
2022-11-20T03:50:54.576Z,57.52
2022-11-20T03:51:54.631Z,58.65
2022-11-20T03:52:54.572Z,56.88
2022-11-20T03:53:54.623Z,57.69
2022-11-20T03:54:54.661Z,56.72
2022-11-20T03:55:54.565Z,56.72
2022-11-20T03:56:54.619Z,56.72
2022-11-20T03:57:54.591Z,57.69
2022-11-20T03:58:54.545Z,57.20
2022-11-20T03:59:54.528Z,57.20
2022-11-20T04:00:54.500Z,56.56
2022-11-20T04:01:54.592Z,58.01
2022-11-20T04:02:54.449Z,56.56
2022-11-20T04:03:54.429Z,57.36
2022-11-20T04:04:54.459Z,59.30
2022-11-20T04:05:54.446Z,56.88
2022-11-20T04:06:54.557Z,58.49
2022-11-20T04:07:54.617Z,57.04
2022-11-20T04:08:54.474Z,57.52
2022-11-20T04:09:54.547Z,57.52
2022-11-20T04:10:54.530Z,56.40
2022-11-20T04:11:54.481Z,56.40
2022-11-20T04:12:54.493Z,56.72
2022-11-20T04:13:54.576Z,56.56
2022-11-20T04:14:54.465Z,57.04
2022-11-20T04:15:54.408Z,58.01
2022-11-20T04:16:54.478Z,58.65
2022-11-20T04:17:54.478Z,57.69
2022-11-20T04:18:54.416Z,57.52
2022-11-20T04:19:54.368Z,56.56
2022-11-20T04:20:54.324Z,57.36
2022-11-20T04:21:54.415Z,57.85
2022-11-20T04:22:57.113Z,58.01
2022-11-20T04:23:54.378Z,57.20
2022-11-20T04:24:54.538Z,58.65
2022-11-20T04:25:54.428Z,58.17
2022-11-20T04:26:54.428Z,57.69
2022-11-20T04:27:54.428Z,56.72
2022-11-20T04:28:54.455Z,57.69
2022-11-20T04:29:54.407Z,58.33
2022-11-20T04:30:54.433Z,56.88
2022-11-20T04:31:54.340Z,56.56
2022-11-20T04:32:54.502Z,58.81
2022-11-20T04:33:54.339Z,57.85
2022-11-20T04:34:54.395Z,57.52
2022-11-20T04:35:54.421Z,56.72
2022-11-20T04:36:54.377Z,57.36
2022-11-20T04:37:54.276Z,57.69
2022-11-20T04:38:57.067Z,56.88
2022-11-20T04:39:55.362Z,56.40
2022-11-20T04:40:54.220Z,56.40
2022-11-20T04:41:54.347Z,56.40
2022-11-20T04:42:54.286Z,56.40
2022-11-20T04:43:54.336Z,58.33
2022-11-20T04:44:54.274Z,58.33
2022-11-20T04:45:54.264Z,56.56
2022-11-20T04:46:54.258Z,57.20
2022-11-20T04:47:54.367Z,57.52
2022-11-20T04:48:54.247Z,60.59
2022-11-20T04:49:54.422Z,57.36
2022-11-20T04:50:54.250Z,57.36
2022-11-20T04:51:54.225Z,57.52
2022-11-20T04:52:54.143Z,58.17
2022-11-20T04:53:54.145Z,57.36
2022-11-20T04:54:54.178Z,60.75
2022-11-20T04:55:54.345Z,58.01
2022-11-20T04:56:54.098Z,56.56
2022-11-20T04:57:54.237Z,56.56
2022-11-20T04:58:54.198Z,58.81
2022-11-20T04:59:54.259Z,57.52
2022-11-20T05:00:54.189Z,57.20
2022-11-20T05:01:54.295Z,57.52
2022-11-20T05:02:54.055Z,56.40
2022-11-20T05:03:54.164Z,56.56
2022-11-20T05:04:54.130Z,56.56
2022-11-20T05:05:54.164Z,58.33
2022-11-20T05:06:54.122Z,56.40
2022-11-20T05:07:54.211Z,56.72
2022-11-20T05:08:54.119Z,57.20
2022-11-20T05:09:54.107Z,57.04
2022-11-20T05:10:54.131Z,58.65
2022-11-20T05:11:54.056Z,57.69
2022-11-20T05:12:53.990Z,57.20
2022-11-20T05:13:54.120Z,61.71
2022-11-20T05:14:54.055Z,57.69
2022-11-20T05:15:54.074Z,57.85
2022-11-20T05:16:54.148Z,57.36
2022-11-20T05:17:54.080Z,56.88
2022-11-20T05:18:54.046Z,57.69
2022-11-20T05:19:54.070Z,57.36
2022-11-20T05:20:53.949Z,57.69
2022-11-20T05:21:54.066Z,56.88
2022-11-20T05:22:54.039Z,56.40
2022-11-20T05:23:54.025Z,57.20
2022-11-20T05:24:53.927Z,58.17
2022-11-20T05:25:58.700Z,59.94
2022-11-20T05:26:56.060Z,57.69
2022-11-20T05:27:54.056Z,59.14
2022-11-20T05:28:54.006Z,57.04
2022-11-20T05:29:53.943Z,57.52
2022-11-20T05:30:53.969Z,58.81
2022-11-20T05:31:53.973Z,56.72
2022-11-20T05:32:53.877Z,58.81
2022-11-20T05:33:53.989Z,57.69
2022-11-20T05:34:53.881Z,58.81
2022-11-20T05:35:53.918Z,58.17
2022-11-20T05:36:53.932Z,56.40
2022-11-20T05:37:53.975Z,58.65
2022-11-20T05:38:59.723Z,57.20
2022-11-20T05:39:55.798Z,58.65
2022-11-20T05:40:53.869Z,57.85
2022-11-20T05:41:53.931Z,56.72
2022-11-20T05:42:53.869Z,57.69
2022-11-20T05:43:53.967Z,58.49
2022-11-20T05:44:53.982Z,57.04
2022-11-20T05:45:53.890Z,56.72
2022-11-20T05:46:53.971Z,57.52
2022-11-20T05:47:53.827Z,57.36
2022-11-20T05:48:53.823Z,57.52
2022-11-20T05:49:53.755Z,58.17
2022-11-20T05:50:53.745Z,57.52
2022-11-20T05:51:53.740Z,57.52
2022-11-20T05:52:53.736Z,56.40
2022-11-20T05:53:53.725Z,57.69
2022-11-20T05:54:53.771Z,58.65
2022-11-20T05:55:53.729Z,57.20
2022-11-20T05:56:53.820Z,57.69
2022-11-20T05:57:53.795Z,57.20
2022-11-20T05:58:53.795Z,57.69
2022-11-20T05:59:53.870Z,62.52
2022-11-20T06:00:53.826Z,58.97
2022-11-20T06:01:53.805Z,56.72
2022-11-20T06:02:53.743Z,56.40
2022-11-20T06:03:53.751Z,56.72
2022-11-20T06:04:53.737Z,57.69
2022-11-20T06:05:53.817Z,60.91
2022-11-20T06:06:53.771Z,56.56
2022-11-20T06:07:53.692Z,57.20
2022-11-20T06:08:53.690Z,57.85
2022-11-20T06:09:53.635Z,57.20
2022-11-20T06:10:53.705Z,57.69
2022-11-20T06:11:53.686Z,57.04
2022-11-20T06:12:53.614Z,58.97
2022-11-20T06:13:53.587Z,57.52
2022-11-20T06:14:53.747Z,57.04
2022-11-20T06:15:53.674Z,56.72
2022-11-20T06:16:53.751Z,59.14
2022-11-20T06:17:53.680Z,57.69
2022-11-20T06:18:53.762Z,56.88
2022-11-20T06:19:53.666Z,56.56
2022-11-20T06:20:53.649Z,57.36
2022-11-20T06:21:53.750Z,57.04
2022-11-20T06:22:53.662Z,59.30
2022-11-20T06:23:53.684Z,57.20
2022-11-20T06:24:53.744Z,56.88
2022-11-20T06:25:53.585Z,58.33
2022-11-20T06:26:53.543Z,58.17
2022-11-20T06:27:53.747Z,57.69
2022-11-20T06:28:53.709Z,56.24
2022-11-20T06:29:53.613Z,56.07
2022-11-20T06:30:53.583Z,57.85
2022-11-20T06:31:53.598Z,58.65
2022-11-20T06:32:53.617Z,58.01
2022-11-20T06:33:53.611Z,58.17
2022-11-20T06:34:53.549Z,57.69
2022-11-20T06:35:59.641Z,62.36
2022-11-20T06:36:55.587Z,60.75
2022-11-20T06:37:53.595Z,59.62
2022-11-20T06:38:53.613Z,57.85
2022-11-20T06:39:53.621Z,61.23
2022-11-20T06:40:53.444Z,61.39
2022-11-20T06:41:58.520Z,60.42
2022-11-20T06:42:55.537Z,60.26
2022-11-20T06:43:54.467Z,62.36
2022-11-20T06:44:53.444Z,68.00
2022-11-20T06:45:53.373Z,65.74
2022-11-20T06:46:53.435Z,61.55
2022-11-20T06:47:53.421Z,63.33
2022-11-20T06:48:53.478Z,61.71
2022-11-20T06:49:53.381Z,60.26
2022-11-20T06:50:53.374Z,66.23
2022-11-20T06:51:54.468Z,65.74
2022-11-20T06:52:53.477Z,65.10
2022-11-20T06:53:53.520Z,57.69
2022-11-20T06:54:53.442Z,66.06
2022-11-20T06:55:53.425Z,65.58
2022-11-20T06:56:53.399Z,63.16
2022-11-20T06:57:55.912Z,68.00
2022-11-20T06:58:54.452Z,59.46
2022-11-20T06:59:53.387Z,63.49
2022-11-20T07:00:53.463Z,60.75
2022-11-20T07:01:53.309Z,64.78
2022-11-20T07:02:53.297Z,67.84
2022-11-20T07:03:54.576Z,62.84
2022-11-20T07:04:54.332Z,63.81
2022-11-20T07:05:53.279Z,65.58
2022-11-20T07:06:53.260Z,65.58
2022-11-20T07:07:53.297Z,61.71
2022-11-20T07:08:53.346Z,61.07
2022-11-20T07:09:53.429Z,59.62
2022-11-20T07:10:53.391Z,56.40
2022-11-20T07:11:53.342Z,58.97
2022-11-20T07:12:53.342Z,59.14
2022-11-20T07:13:53.334Z,58.49
2022-11-20T07:14:53.304Z,58.33
2022-11-20T07:15:53.332Z,58.97
2022-11-20T07:16:53.453Z,59.30
2022-11-20T07:17:53.328Z,59.62
2022-11-20T07:18:53.271Z,57.04
2022-11-20T07:19:53.285Z,58.33
2022-11-20T07:20:53.455Z,57.69
2022-11-20T07:21:53.283Z,62.52
2022-11-20T07:22:53.271Z,59.62
2022-11-20T07:23:53.220Z,59.14
2022-11-20T07:24:53.119Z,58.17
2022-11-20T07:25:53.197Z,59.14
2022-11-20T07:26:53.313Z,58.49
2022-11-20T07:27:53.374Z,59.46
2022-11-20T07:28:53.310Z,58.97
2022-11-20T07:29:53.306Z,56.72
2022-11-20T07:30:53.269Z,59.94
2022-11-20T07:31:53.295Z,58.97
2022-11-20T07:32:53.224Z,58.81
2022-11-20T07:33:53.143Z,59.14
2022-11-20T07:34:53.187Z,59.14
2022-11-20T07:35:53.177Z,58.01
2022-11-20T07:36:53.179Z,58.65
2022-11-20T07:37:53.245Z,57.69
2022-11-20T07:38:53.156Z,57.85
2022-11-20T07:39:53.173Z,57.69
2022-11-20T07:40:53.050Z,58.49
2022-11-20T07:41:53.100Z,56.07
2022-11-20T09:00:36.989Z,53.33
2022-11-20T09:01:35.874Z,55.91
2022-11-20T09:02:35.855Z,55.91
2022-11-20T09:03:35.827Z,55.43
2022-11-20T09:04:36.063Z,54.79
2022-11-20T09:05:35.928Z,56.24
2022-11-20T09:06:35.909Z,57.52
2022-11-20T09:07:35.934Z,60.10
2022-11-20T09:08:35.912Z,58.65
2022-11-20T09:09:35.880Z,58.81
2022-11-20T09:10:35.795Z,58.65
2022-11-20T09:11:35.879Z,56.88
2022-11-20T09:12:35.948Z,59.14
2022-11-20T09:13:35.881Z,59.94
2022-11-20T09:14:35.880Z,59.30
2022-11-20T09:15:35.871Z,59.78
2022-11-20T09:16:35.915Z,57.36
2022-11-20T09:17:36.869Z,57.36
2022-11-20T09:18:35.816Z,57.52
2022-11-20T09:19:36.405Z,57.36
2022-11-20T09:20:36.879Z,59.78
2022-11-20T09:21:35.809Z,59.62
2022-11-20T09:22:35.794Z,57.36
2022-11-20T09:23:35.827Z,67.03
2022-11-20T09:24:35.915Z,58.17
2022-11-20T09:25:36.772Z,59.62
2022-11-20T09:26:35.879Z,60.75
2022-11-20T09:27:35.747Z,60.26
2022-11-20T09:28:38.549Z,59.14
2022-11-20T09:29:35.830Z,57.52
2022-11-20T09:30:35.786Z,59.94
2022-11-20T09:31:35.797Z,60.75
2022-11-20T09:32:35.769Z,58.17
2022-11-20T09:33:35.662Z,64.45
2022-11-20T09:34:35.678Z,58.33
2022-11-20T09:35:35.624Z,58.97
2022-11-20T09:36:35.734Z,57.20
2022-11-20T09:37:35.685Z,59.30
2022-11-20T09:38:35.737Z,62.68
2022-11-20T09:39:35.784Z,58.97
2022-11-20T09:40:35.685Z,60.10
2022-11-20T09:41:35.685Z,58.17
2022-11-20T09:42:35.722Z,60.75
2022-11-20T09:43:36.390Z,59.94
2022-11-20T09:44:35.725Z,62.20
2022-11-20T09:45:35.725Z,61.39
2022-11-20T09:46:35.643Z,60.75
2022-11-20T09:47:35.693Z,59.94
2022-11-20T09:48:35.610Z,59.78
2022-11-20T09:49:35.591Z,60.59
2022-11-20T09:50:35.589Z,58.65
2022-11-20T09:51:35.533Z,61.23
2022-11-20T09:52:35.533Z,60.10
2022-11-20T09:53:35.568Z,60.26
2022-11-20T09:54:35.690Z,61.07
2022-11-20T09:55:35.533Z,62.52
2022-11-20T09:56:35.464Z,60.42
2022-11-20T09:57:35.491Z,60.42
2022-11-20T09:58:35.592Z,60.91
2022-11-20T09:59:35.681Z,62.84
2022-11-20T10:00:35.755Z,60.26
2022-11-20T10:01:35.606Z,62.68
2022-11-20T10:02:35.508Z,60.26
2022-11-20T10:03:35.511Z,62.04
2022-11-20T10:04:38.154Z,60.59
2022-11-20T10:05:36.524Z,60.75
2022-11-20T10:06:35.516Z,60.91
2022-11-20T10:07:35.512Z,61.71
2022-11-20T10:08:35.433Z,60.42
2022-11-20T10:09:39.151Z,61.71
2022-11-20T10:10:39.783Z,61.55
2022-11-20T10:11:37.507Z,63.97
2022-11-20T10:12:35.403Z,66.87
2022-11-20T10:13:44.822Z,62.04
2022-11-20T10:14:35.422Z,62.68
2022-11-20T10:15:35.592Z,66.39
2022-11-20T10:16:40.628Z,62.52
2022-11-20T10:17:37.383Z,60.75
2022-11-20T10:18:35.446Z,60.59
2022-11-20T10:19:35.405Z,60.59
2022-11-20T10:20:35.435Z,67.51
2022-11-20T10:21:35.448Z,64.78
2022-11-20T10:22:35.548Z,62.04
2022-11-20T10:23:35.496Z,66.06
2022-11-20T10:24:35.482Z,61.39
2022-11-20T10:25:35.401Z,61.23
2022-11-20T10:26:35.391Z,60.91
2022-11-20T10:27:35.404Z,61.71
2022-11-20T10:28:35.260Z,60.59
2022-11-20T10:29:35.283Z,62.20
2022-11-20T10:30:35.420Z,63.33
2022-11-20T10:31:35.322Z,60.42
2022-11-20T10:32:35.288Z,62.84
2022-11-20T10:33:57.094Z,60.75
2022-11-20T10:34:37.218Z,60.42
2022-11-20T10:35:35.389Z,59.94
2022-11-20T10:36:37.987Z,61.39
2022-11-20T10:37:35.355Z,61.55
2022-11-20T10:38:35.323Z,61.23
2022-11-20T10:39:35.469Z,61.71
2022-11-20T10:40:35.330Z,60.75
2022-11-20T10:41:37.071Z,60.75
2022-11-20T10:42:36.322Z,61.71
2022-11-20T10:43:35.169Z,61.07
2022-11-20T10:44:35.161Z,61.23
2022-11-20T10:45:35.249Z,67.84
2022-11-20T10:46:35.153Z,61.55
2022-11-20T10:47:35.168Z,60.75
2022-11-20T10:48:35.190Z,61.23
2022-11-20T10:49:35.188Z,60.59
2022-11-20T10:50:35.177Z,61.71
2022-11-20T10:51:35.107Z,62.68
2022-11-20T10:52:35.293Z,60.26
2022-11-20T10:53:35.243Z,59.94
2022-11-20T10:54:35.233Z,60.26
2022-11-20T10:55:35.247Z,62.52
2022-11-20T10:56:35.163Z,62.84
2022-11-20T10:57:35.192Z,61.71
2022-11-20T10:58:35.430Z,60.75
2022-11-20T10:59:37.888Z,69.13
2022-11-20T11:00:35.326Z,61.71
2022-11-20T11:01:35.362Z,60.75
2022-11-20T11:02:36.092Z,60.26
2022-11-20T11:03:35.434Z,60.42
2022-11-20T11:04:35.096Z,59.78
2022-11-20T11:05:35.213Z,68.16
2022-11-20T11:06:35.049Z,66.71
2022-11-20T11:07:35.140Z,59.94
2022-11-20T11:08:35.121Z,61.07
2022-11-20T11:09:35.181Z,58.81
2022-11-20T11:10:35.172Z,59.62
2022-11-20T11:11:35.079Z,59.78
2022-11-20T11:12:35.136Z,58.97
2022-11-20T11:13:35.063Z,65.58
2022-11-20T11:14:35.125Z,60.26
2022-11-20T11:15:35.081Z,58.33
2022-11-20T11:16:34.944Z,60.75
2022-11-20T11:17:34.947Z,59.78
2022-11-20T11:18:35.072Z,60.26
2022-11-20T11:19:34.940Z,60.42
2022-11-20T11:20:34.945Z,59.62
2022-11-20T11:21:34.963Z,58.17
2022-11-20T11:22:34.944Z,59.46
2022-11-20T11:23:34.973Z,65.58
2022-11-20T11:24:42.163Z,59.78
2022-11-20T11:25:37.137Z,60.26
2022-11-20T11:26:34.975Z,60.42
2022-11-20T11:27:40.964Z,60.75
2022-11-20T11:28:34.969Z,59.62
2022-11-20T11:29:41.189Z,62.04
2022-11-20T11:30:35.014Z,60.75
2022-11-20T11:31:35.203Z,60.75
2022-11-20T11:32:34.994Z,60.26
2022-11-20T11:33:34.928Z,61.07
2022-11-20T11:34:35.553Z,60.59
2022-11-20T11:35:34.866Z,61.71
2022-11-20T11:36:35.110Z,60.59
2022-11-20T11:37:34.872Z,61.39
2022-11-20T11:38:34.910Z,61.23
2022-11-20T11:39:35.258Z,61.55
2022-11-20T11:40:34.819Z,62.20
2022-11-20T11:41:34.975Z,60.42
2022-11-20T11:42:35.969Z,60.91
2022-11-20T11:43:36.838Z,60.26
2022-11-20T11:44:35.941Z,64.13
2022-11-20T11:45:34.876Z,61.23
2022-11-20T11:46:34.894Z,61.55
2022-11-20T11:47:34.867Z,61.71
2022-11-20T11:48:34.896Z,60.26
2022-11-20T11:49:34.894Z,60.10
2022-11-20T11:50:34.766Z,61.71
2022-11-20T11:51:34.726Z,60.59
2022-11-20T11:52:34.968Z,59.78
2022-11-20T11:53:34.782Z,60.10
2022-11-20T11:54:34.754Z,61.23
2022-11-20T11:55:34.769Z,59.94
2022-11-20T11:56:34.720Z,61.55
2022-11-20T11:57:34.835Z,65.10
2022-11-20T11:58:34.838Z,65.42
2022-11-20T11:59:34.772Z,60.10
2022-11-20T12:00:34.763Z,59.78
2022-11-20T12:01:34.774Z,61.07
2022-11-20T12:02:34.710Z,60.42
2022-11-20T12:03:34.835Z,59.46
2022-11-20T12:04:34.786Z,60.59
2022-11-20T12:05:34.710Z,58.65
2022-11-20T12:06:34.649Z,60.75
2022-11-20T12:07:49.858Z,71.38
2022-11-20T12:08:36.931Z,60.91
2022-11-20T12:09:34.651Z,60.10
2022-11-20T12:10:36.229Z,60.75
2022-11-20T12:11:34.636Z,59.78
2022-11-20T12:12:34.680Z,60.75
2022-11-20T12:13:34.624Z,59.14
2022-11-20T12:14:34.647Z,59.46
2022-11-20T12:15:34.610Z,60.91
2022-11-20T12:16:34.661Z,67.03
2022-11-20T12:17:34.770Z,60.75
2022-11-20T12:18:34.634Z,60.91
2022-11-20T12:19:34.697Z,61.23
2022-11-20T12:20:34.636Z,60.10
2022-11-20T12:21:34.696Z,60.91
2022-11-20T12:22:34.632Z,60.10
2022-11-20T12:23:34.658Z,60.75
2022-11-20T12:24:34.691Z,61.07
2022-11-20T12:25:34.794Z,64.13
2022-11-20T12:26:34.561Z,64.13
2022-11-20T12:27:34.528Z,60.42
2022-11-20T12:28:34.571Z,65.26
2022-11-20T12:29:34.626Z,62.04
2022-11-20T12:30:34.733Z,67.03
2022-11-20T12:31:34.556Z,60.26
2022-11-20T12:32:34.600Z,60.42
2022-11-20T12:33:34.536Z,60.75
2022-11-20T12:34:34.533Z,60.75
2022-11-20T12:35:34.502Z,61.87
2022-11-20T12:36:34.752Z,64.29
2022-11-20T12:37:34.486Z,60.59
2022-11-20T12:38:34.564Z,60.42
2022-11-20T12:39:34.487Z,62.20
2022-11-20T12:40:34.575Z,60.91
2022-11-20T12:41:34.538Z,60.75
2022-11-20T12:42:34.439Z,59.46
2022-11-20T12:43:34.489Z,61.23
2022-11-20T12:44:34.418Z,61.87
2022-11-20T12:45:34.469Z,65.26
2022-11-20T12:46:34.574Z,60.42
2022-11-20T12:47:34.421Z,66.06
2022-11-20T12:48:34.439Z,63.49
2022-11-20T12:49:34.439Z,63.81
2022-11-20T12:50:38.765Z,60.91
2022-11-20T12:51:36.342Z,60.26
2022-11-20T12:52:35.477Z,60.91
2022-11-20T12:53:34.404Z,61.87
2022-11-20T12:54:34.405Z,61.71
2022-11-20T12:55:34.378Z,60.10
2022-11-20T12:56:34.590Z,59.78
2022-11-20T12:57:34.419Z,63.16
2022-11-20T12:58:34.423Z,59.78
2022-11-20T12:59:34.418Z,61.87
2022-11-20T13:00:34.443Z,61.07
2022-11-20T13:01:34.398Z,60.59
2022-11-20T13:02:34.259Z,61.71
2022-11-20T13:03:35.483Z,61.87
2022-11-20T13:04:34.313Z,60.59
2022-11-20T13:05:34.288Z,61.07
2022-11-20T13:06:34.299Z,59.30
2022-11-20T13:07:34.323Z,58.49
2022-11-20T13:08:34.362Z,58.65
2022-11-20T13:09:34.307Z,59.14
2022-11-20T13:10:34.254Z,60.42
2022-11-20T13:11:34.285Z,58.33
2022-11-20T13:12:34.322Z,59.30
2022-11-20T13:13:34.309Z,59.14
2022-11-20T13:14:34.405Z,59.14
2022-11-20T13:15:34.257Z,59.14
2022-11-20T13:16:34.267Z,59.62
2022-11-20T13:17:34.251Z,60.26
2022-11-20T13:18:34.277Z,60.10
2022-11-20T13:19:34.462Z,60.10
2022-11-20T13:20:34.181Z,59.94
2022-11-20T13:21:34.169Z,63.81
2022-11-20T13:22:34.167Z,62.68
2022-11-20T13:23:34.156Z,61.71
2022-11-20T13:24:34.322Z,63.49
2022-11-20T13:25:34.161Z,62.04
2022-11-20T13:26:34.089Z,63.81
2022-11-20T13:27:34.118Z,59.78
2022-11-20T13:28:34.132Z,60.26
2022-11-20T13:29:34.192Z,60.42
2022-11-20T13:30:34.368Z,60.59
2022-11-20T13:31:34.123Z,61.71
2022-11-20T13:32:34.192Z,60.75
2022-11-20T13:33:34.145Z,62.84
2022-11-20T13:34:34.196Z,60.91
2022-11-20T13:35:34.182Z,61.87
2022-11-20T13:36:34.216Z,62.52
2022-11-20T13:37:34.098Z,77.99
2022-11-20T13:38:34.092Z,87.82
2022-11-20T13:39:35.055Z,61.87
2022-11-20T13:40:34.143Z,68.80
2022-11-20T13:41:34.123Z,61.39
2022-11-20T13:42:34.018Z,60.75
2022-11-20T13:43:34.022Z,60.75
2022-11-20T13:44:34.035Z,62.84
2022-11-20T13:45:33.966Z,63.33
2022-11-20T13:46:33.992Z,63.16
2022-11-20T13:47:34.190Z,60.59
2022-11-20T13:48:34.026Z,59.62
2022-11-20T13:49:34.107Z,59.94
2022-11-20T13:50:34.039Z,58.33
2022-11-20T13:51:34.074Z,58.97
2022-11-20T13:52:34.112Z,59.46
2022-11-20T13:53:34.066Z,60.10
2022-11-20T13:54:33.998Z,59.46
2022-11-20T13:55:33.995Z,59.46
2022-11-20T13:56:34.008Z,60.26
2022-11-20T13:57:33.964Z,60.59
2022-11-20T13:58:34.059Z,59.78
2022-11-20T13:59:34.031Z,59.46
2022-11-20T14:00:34.097Z,60.10
2022-11-20T14:01:33.974Z,58.49
2022-11-20T14:02:34.037Z,63.16
2022-11-20T14:03:58.855Z,60.26
2022-11-20T14:04:35.932Z,69.93
2022-11-20T14:05:33.879Z,65.90
2022-11-20T14:06:33.915Z,60.26
2022-11-20T14:07:33.848Z,61.87
2022-11-20T14:08:34.297Z,63.49
2022-11-20T14:09:33.985Z,59.78
2022-11-20T14:10:33.918Z,61.07